Time;durP1;ratioP1;P1;durP2;ratioP2;P2;SDS_P1;SDS_P2;PMS_P1;PMS_P2;Temp;Humidity;BMP_temperature;BMP_pressure;BME280_temperature;BME280_humidity;BME280_pressure;Samples;Min_cycle;Max_cycle;Signal;HPM_P1;HPM_P2
2021/10/29 00:00:53;;;;;;;12.60;8.05;;;;;;;5.20;95.46;95798.53;6366841;22;20002;-59
2021/10/29 00:03:18;;;;;;;12.13;8.40;;;;;;;5.16;95.84;95793.50;6365954;22;20081;-58
2021/10/29 00:05:44;;;;;;;8.48;7.05;;;;;;;5.22;95.94;95807.09;6366419;22;20006;-58
2021/10/29 00:08:10;;;;;;;12.20;8.00;;;;;;;5.27;95.94;95805.00;6366327;22;20006;-58
2021/10/29 00:10:36;;;;;;;8.60;7.47;;;;;;;5.22;95.56;95804.47;6365997;22;20010;-58
2021/10/29 00:13:01;;;;;;;11.60;7.85;;;;;;;5.20;95.67;95804.56;6366410;22;20003;-58
2021/10/29 00:15:27;;;;;;;11.70;8.15;;;;;;;5.16;96.21;95795.28;6366166;22;20114;-58
2021/10/29 00:17:53;;;;;;;11.18;7.20;;;;;;;5.15;96.04;95791.84;6366528;22;20426;-58
2021/10/29 00:20:18;;;;;;;8.95;8.13;;;;;;;5.19;96.54;95791.63;6365824;22;20017;-58
2021/10/29 00:22:44;;;;;;;8.00;7.20;;;;;;;5.15;96.13;95789.22;6366507;22;20056;-58
2021/10/29 00:25:09;;;;;;;10.98;7.93;;;;;;;5.08;96.14;95780.16;6365652;22;20077;-58
2021/10/29 00:27:35;;;;;;;8.25;7.43;;;;;;;5.05;96.39;95771.69;6365596;22;20407;-58
2021/10/29 00:30:00;;;;;;;10.82;7.70;;;;;;;5.02;96.53;95784.00;6366149;22;20002;-59
2021/10/29 00:32:27;;;;;;;9.98;7.65;;;;;;;5.00;96.43;95782.47;6366192;22;20002;-58
2021/10/29 00:34:53;;;;;;;13.57;8.63;;;;;;;4.97;96.84;95780.03;6365961;22;19998;-58
2021/10/29 00:37:18;;;;;;;11.48;9.25;;;;;;;4.98;97.21;95779.13;6365850;22;20081;-58
2021/10/29 00:39:44;;;;;;;10.90;9.05;;;;;;;5.02;97.32;95786.63;6365611;22;19999;-58
2021/10/29 00:42:09;;;;;;;8.80;7.85;;;;;;;5.04;96.66;95777.84;6365536;22;20005;-58
2021/10/29 00:44:35;;;;;;;10.15;8.25;;;;;;;5.06;97.08;95779.44;6365535;22;20002;-58
2021/10/29 00:47:00;;;;;;;11.13;8.20;;;;;;;5.08;96.61;95784.53;6365981;22;20435;-58
2021/10/29 00:49:26;;;;;;;10.63;8.00;;;;;;;5.08;96.32;95782.75;6365746;22;20013;-57
2021/10/29 00:51:52;;;;;;;9.73;7.85;;;;;;;5.08;96.24;95776.69;6366002;22;20007;-58
2021/10/29 00:54:20;;;;;;;10.15;7.82;;;;;;;5.00;95.95;95779.84;6364976;22;20002;-57
2021/10/29 00:56:47;;;;;;;11.50;7.97;;;;;;;4.98;96.61;95774.72;6365780;22;20002;-58
2021/10/29 00:59:13;;;;;;;9.25;6.53;;;;;;;4.95;97.28;95780.16;6364393;22;20408;-58
2021/10/29 01:01:38;;;;;;;7.10;6.40;;;;;;;4.90;97.12;95769.22;6365557;22;19998;-58
2021/10/29 01:04:05;;;;;;;8.02;6.10;;;;;;;4.91;97.18;95768.28;6365503;22;20071;-58
2021/10/29 01:06:32;;;;;;;7.05;6.35;;;;;;;4.93;96.92;95775.97;6366002;22;20006;-58
2021/10/29 01:08:58;;;;;;;6.43;5.85;;;;;;;4.94;96.32;95765.47;6365561;22;20071;-58
2021/10/29 01:11:26;;;;;;;6.22;5.60;;;;;;;4.94;96.41;95770.66;6365422;22;20043;-56
2021/10/29 01:13:52;;;;;;;7.55;6.80;;;;;;;4.88;96.99;95758.88;6365386;22;20007;-58
2021/10/29 01:16:19;;;;;;;7.38;5.78;;;;;;;4.81;97.27;95762.84;6367414;22;20458;-58
2021/10/29 01:18:44;;;;;;;7.28;6.47;;;;;;;4.77;97.47;95761.41;6368215;22;20002;-58
2021/10/29 01:21:09;;;;;;;11.82;6.35;;;;;;;4.77;97.63;95765.75;6367663;22;20041;-58
2021/10/29 01:23:37;;;;;;;9.43;6.20;;;;;;;4.75;97.26;95757.22;6367794;22;20006;-58
2021/10/29 01:26:07;;;;;;;8.15;6.35;;;;;;;4.75;96.96;95765.03;6368062;22;19999;-58
2021/10/29 01:28:33;;;;;;;9.43;5.88;;;;;;;4.76;97.41;95759.72;6367576;22;20303;-58
2021/10/29 01:30:59;;;;;;;12.45;6.43;;;;;;;4.69;97.30;95761.06;6368041;22;20025;-58
2021/10/29 01:33:24;;;;;;;8.13;6.97;;;;;;;4.66;97.48;95759.50;6367677;22;20009;-58
2021/10/29 01:35:50;;;;;;;6.65;5.88;;;;;;;4.66;97.28;95750.84;6367729;22;20040;-58
2021/10/29 01:38:16;;;;;;;7.63;5.90;;;;;;;4.61;97.41;95756.38;6367438;22;20081;-58
2021/10/29 01:40:41;;;;;;;7.13;5.57;;;;;;;4.59;97.07;95758.25;6367950;22;19998;-58
2021/10/29 01:43:06;;;;;;;6.60;5.35;;;;;;;4.58;97.69;95754.81;6367218;22;20002;-58
2021/10/29 01:45:34;;;;;;;6.60;5.60;;;;;;;4.64;97.95;95757.94;6367408;22;20037;-58
2021/10/29 01:47:59;;;;;;;6.32;5.75;;;;;;;4.65;98.43;95759.59;6367817;22;20044;-58
2021/10/29 01:50:25;;;;;;;10.38;5.70;;;;;;;4.67;98.47;95752.50;6367080;22;20010;-57
2021/10/29 01:52:50;;;;;;;6.30;5.70;;;;;;;4.67;98.33;95747.28;6367615;22;20002;-58
2021/10/29 01:55:16;;;;;;;6.85;6.18;;;;;;;4.66;98.50;95748.22;6367232;22;20562;-58
2021/10/29 01:57:42;;;;;;;6.88;5.90;;;;;;;4.66;98.36;95745.63;6367596;22;20030;-58
2021/10/29 02:00:08;;;;;;;6.93;5.53;;;;;;;4.68;98.09;95733.31;6367268;22;20009;-58
2021/10/29 02:02:33;;;;;;;7.20;6.13;;;;;;;4.66;98.12;95740.41;6367559;22;20086;-58
2021/10/29 02:04:58;;;;;;;6.32;5.72;;;;;;;4.61;98.50;95732.06;6366967;22;20003;-58
2021/10/29 02:07:24;;;;;;;7.10;6.30;;;;;;;4.58;98.20;95730.50;6367017;22;20010;-58
2021/10/29 02:09:49;;;;;;;6.43;5.82;;;;;;;4.53;98.94;95736.03;6367337;22;20013;-58
2021/10/29 02:12:15;;;;;;;6.85;5.95;;;;;;;4.50;98.71;95735.41;6366908;22;20009;-58
2021/10/29 02:14:40;;;;;;;8.15;5.43;;;;;;;4.50;98.40;95725.78;6367113;22;20011;-58
2021/10/29 02:17:05;;;;;;;11.80;6.72;;;;;;;4.53;98.41;95733.44;6367653;22;20059;-58
2021/10/29 02:19:31;;;;;;;7.05;6.28;;;;;;;4.58;98.27;95718.31;6367574;22;20010;-57
2021/10/29 02:21:56;;;;;;;7.85;7.05;;;;;;;4.64;98.74;95717.06;6366845;22;20439;-58
2021/10/29 02:24:22;;;;;;;8.82;6.78;;;;;;;4.65;98.76;95713.50;6366856;22;20034;-58
2021/10/29 02:26:47;;;;;;;7.07;6.45;;;;;;;4.65;98.47;95705.69;6367382;22;20345;-57
2021/10/29 02:29:13;;;;;;;7.80;6.55;;;;;;;4.64;98.68;95706.63;6366657;22;20085;-58
2021/10/29 02:31:40;;;;;;;6.82;6.22;;;;;;;4.66;98.63;95701.28;6366918;22;20006;-58
2021/10/29 02:34:06;;;;;;;9.68;7.10;;;;;;;4.70;98.31;95690.56;6365758;22;20003;-58
2021/10/29 02:36:31;;;;;;;7.38;6.68;;;;;;;4.73;98.15;95695.56;6366399;22;20003;-58
2021/10/29 02:38:58;;;;;;;7.13;6.25;;;;;;;4.74;98.33;95691.16;6366781;22;20002;-58
2021/10/29 02:41:24;;;;;;;8.80;6.72;;;;;;;4.71;98.39;95691.38;6366868;22;20025;-57
2021/10/29 02:43:50;;;;;;;7.22;6.57;;;;;;;4.67;98.85;95679.50;6366639;22;20013;-58
2021/10/29 02:46:15;;;;;;;11.43;6.65;;;;;;;4.72;98.85;95680.84;6366559;22;20073;-58
2021/10/29 02:48:41;;;;;;;7.80;7.00;;;;;;;4.76;98.82;95691.91;6366623;22;20003;-58
2021/10/29 02:51:07;;;;;;;7.22;6.53;;;;;;;4.78;98.43;95677.00;6367386;22;20059;-58
2021/10/29 02:53:35;;;;;;;9.50;6.75;;;;;;;4.80;98.19;95684.69;6366545;22;20343;-58
2021/10/29 02:56:01;;;;;;;8.43;6.80;;;;;;;4.81;98.32;95684.59;6366918;22;20006;-58
2021/10/29 02:58:28;;;;;;;7.25;6.65;;;;;;;4.84;98.24;95680.91;6366776;22;20033;-58
2021/10/29 03:00:54;;;;;;;9.98;6.90;;;;;;;4.73;98.12;95676.44;6366994;22;20078;-58
2021/10/29 03:03:20;;;;;;;7.68;6.88;;;;;;;4.68;98.00;95675.94;6366573;22;20708;-57
2021/10/29 03:05:45;;;;;;;8.30;6.80;;;;;;;4.67;97.86;95676.88;6366588;22;19998;-58
2021/10/29 03:08:11;;;;;;;7.45;6.72;;;;;;;4.67;97.71;95679.50;6366619;22;20006;-58
2021/10/29 03:10:37;;;;;;;8.13;6.90;;;;;;;4.63;98.22;95673.63;6366861;22;20034;-58
2021/10/29 03:13:02;;;;;;;6.68;6.00;;;;;;;4.66;98.31;95675.22;6366766;22;20011;-58
2021/10/29 03:15:28;;;;;;;8.05;7.13;;;;;;;4.62;98.03;95663.34;6366081;22;20494;-58
2021/10/29 03:17:54;;;;;;;7.15;6.45;;;;;;;4.55;98.77;95661.16;6366820;22;20003;-58
2021/10/29 03:20:19;;;;;;;7.13;5.90;;;;;;;4.55;98.25;95655.94;6366459;22;20006;-58
2021/10/29 03:22:45;;;;;;;7.45;6.53;;;;;;;4.55;98.98;95653.34;6366450;22;20005;-58
2021/10/29 03:25:10;;;;;;;7.13;6.40;;;;;;;4.51;98.97;95651.84;6366683;22;20022;-58
2021/10/29 03:27:36;;;;;;;8.02;6.72;;;;;;;4.52;99.31;95647.47;6366460;22;20081;-58
2021/10/29 03:30:03;;;;;;;6.50;5.85;;;;;;;4.53;99.09;95647.38;6366566;22;20014;-58
2021/10/29 03:32:28;;;;;;;8.00;6.13;;;;;;;4.53;99.30;95636.13;6366315;22;20184;-58
2021/10/29 03:34:54;;;;;;;8.88;6.93;;;;;;;4.51;99.27;95633.59;6366196;22;20082;-59
2021/10/29 03:37:41;;;;;;;7.13;6.45;;;;;;;4.44;99.38;95635.81;6366270;22;20003;-58
2021/10/29 03:40:58;;;;;;;7.93;7.22;;;;;;;4.48;98.75;95635.59;6365817;22;20036;-57
2021/10/29 03:43:09;;;;;;;7.40;6.70;;;;;;;4.58;98.18;95634.88;6354568;22;20358;-58
2021/10/29 03:45:50;;;;;;;7.43;6.72;;;;;;;4.55;98.52;95623.81;6366137;22;20438;-58
2021/10/29 03:48:19;;;;;;;9.02;6.60;;;;;;;4.50;98.67;95613.69;6366564;22;20315;-58
2021/10/29 03:53:42;;;;;;;10.27;8.23;;;;;;;4.41;98.69;95609.13;6349699;22;20007;-58
2021/10/29 03:56:16;;;;;;;9.75;8.93;;;;;;;4.35;98.50;95619.97;6366092;22;20025;-58
2021/10/29 03:58:42;;;;;;;11.30;7.90;;;;;;;4.30;98.81;95615.88;6366578;22;20380;-58
2021/10/29 04:01:07;;;;;;;11.77;9.20;;;;;;;4.29;98.31;95611.63;6366174;22;20002;-58
2021/10/29 04:03:32;;;;;;;10.32;8.32;;;;;;;4.27;98.73;95608.28;6366048;22;20009;-58
2021/10/29 04:05:58;;;;;;;8.95;8.05;;;;;;;4.24;98.91;95608.50;6366077;22;20002;-58
2021/10/29 04:08:23;;;;;;;13.30;9.55;;;;;;;4.18;99.00;95606.31;6366265;22;20010;-58
2021/10/29 04:10:50;;;;;;;10.57;9.15;;;;;;;4.12;99.22;95601.53;6365817;22;20010;-58
2021/10/29 04:13:16;;;;;;;10.55;8.35;;;;;;;4.14;98.65;95602.25;6366135;22;20010;-58
2021/10/29 04:15:41;;;;;;;8.02;7.20;;;;;;;4.16;98.60;95608.19;6366129;22;20103;-58
2021/10/29 04:18:10;;;;;;;9.30;8.40;;;;;;;4.18;97.98;95603.72;6365987;22;19998;-58
2021/10/29 04:20:36;;;;;;;11.85;7.90;;;;;;;4.14;98.21;95599.66;6365622;22;20002;-57
2021/10/29 04:23:02;;;;;;;10.25;7.28;;;;;;;4.10;98.30;95603.41;6366033;22;20002;-58
2021/10/29 04:25:27;;;;;;;9.15;7.43;;;;;;;4.08;97.84;95610.47;6366217;22;20005;-58
2021/10/29 04:28:00;;;;;;;10.35;6.75;;;;;;;4.06;98.26;95601.94;6366034;22;20002;-58
2021/10/29 04:30:28;;;;;;;7.07;6.38;;;;;;;4.07;97.99;95606.19;6366256;22;20010;-59
2021/10/29 04:32:54;;;;;;;6.85;5.38;;;;;;;4.04;98.43;95603.81;6366004;22;20002;-58
2021/10/29 04:35:20;;;;;;;5.85;5.30;;;;;;;4.05;98.21;95600.25;6365642;22;20026;-58
2021/10/29 04:37:46;;;;;;;6.93;5.90;;;;;;;4.02;98.25;95603.94;6366585;22;20006;-58
2021/10/29 04:40:11;;;;;;;8.30;7.45;;;;;;;3.98;97.99;95605.06;6365627;22;19998;-58
2021/10/29 04:42:38;;;;;;;10.57;8.18;;;;;;;3.95;98.40;95606.09;6365998;22;20477;-58
2021/10/29 04:45:05;;;;;;;9.35;7.07;;;;;;;3.91;98.65;95603.81;6365801;22;20005;-58
2021/10/29 04:47:31;;;;;;;7.00;6.10;;;;;;;3.90;98.54;95607.34;6366222;22;20006;-58
2021/10/29 04:49:56;;;;;;;6.85;6.15;;;;;;;3.89;98.76;95605.69;6365407;22;20006;-58
2021/10/29 04:52:22;;;;;;;8.23;7.53;;;;;;;3.86;98.52;95596.28;6366112;22;19998;-59
2021/10/29 04:54:47;;;;;;;9.38;7.35;;;;;;;3.83;98.95;95594.75;6366735;22;20422;-58
2021/10/29 04:57:13;;;;;;;10.18;7.57;;;;;;;3.80;99.41;95592.34;6364224;22;20071;-59
2021/10/29 04:59:38;;;;;;;7.88;7.13;;;;;;;3.79;99.14;95589.84;6365800;22;20491;-58
2021/10/29 05:02:03;;;;;;;8.45;6.75;;;;;;;3.76;98.97;95582.22;6365623;22;20055;-58
2021/10/29 05:04:29;;;;;;;7.93;6.18;;;;;;;3.70;98.85;95580.84;6365898;22;20006;-58
2021/10/29 05:06:54;;;;;;;6.85;6.20;;;;;;;3.69;99.17;95585.25;6365515;22;20026;-58
2021/10/29 05:09:19;;;;;;;7.82;6.35;;;;;;;3.68;99.53;95582.72;6365953;22;20330;-58
2021/10/29 05:11:45;;;;;;;7.78;6.22;;;;;;;3.66;99.52;95582.00;6365855;22;19999;-58
2021/10/29 05:14:10;;;;;;;12.32;6.40;;;;;;;3.65;99.88;95588.16;6365425;22;20014;-58
2021/10/29 05:16:36;;;;;;;6.10;5.50;;;;;;;3.63;99.66;95583.03;6365956;22;20012;-58
2021/10/29 05:19:01;;;;;;;14.23;6.32;;;;;;;3.63;99.66;95590.84;6363558;22;20002;-58
2021/10/29 05:21:27;;;;;;;6.97;5.70;;;;;;;3.57;99.54;95586.91;6365211;22;20307;-58
2021/10/29 05:23:52;;;;;;;10.82;5.80;;;;;;;3.57;99.99;95588.66;6365939;22;20002;-58
2021/10/29 05:26:17;;;;;;;9.05;6.00;;;;;;;3.61;99.97;95591.91;6366099;22;20338;-58
2021/10/29 05:28:43;;;;;;;5.97;5.47;;;;;;;3.54;99.41;95591.47;6365528;22;20008;-59
2021/10/29 05:31:09;;;;;;;7.13;5.93;;;;;;;3.51;99.93;95594.28;6365542;22;20010;-58
2021/10/29 05:33:34;;;;;;;6.60;5.55;;;;;;;3.54;100.00;95602.72;6365643;22;20002;-58
2021/10/29 05:36:01;;;;;;;9.77;7.13;;;;;;;3.54;100.00;95605.31;6365918;22;20007;-58
2021/10/29 05:38:26;;;;;;;12.70;11.23;;;;;;;3.62;99.48;95603.97;6365292;22;20434;-58
2021/10/29 05:40:52;;;;;;;12.50;9.82;;;;;;;3.66;99.66;95602.84;6366521;22;20048;-58
2021/10/29 05:43:17;;;;;;;13.10;9.82;;;;;;;3.68;99.88;95603.56;6365704;22;19998;-58
2021/10/29 05:45:42;;;;;;;16.95;11.38;;;;;;;3.66;99.39;95603.69;6364522;22;20015;-58
2021/10/29 05:48:08;;;;;;;13.60;10.55;;;;;;;3.64;99.16;95607.31;6365411;22;20119;-58
2021/10/29 05:50:36;;;;;;;30.73;25.08;;;;;;;3.60;98.79;95611.88;6365583;22;20014;-58
2021/10/29 05:53:05;;;;;;;19.45;17.13;;;;;;;3.62;99.01;95607.41;6365733;22;20013;-58
2021/10/29 05:55:31;;;;;;;24.25;21.10;;;;;;;3.62;99.49;95614.41;6366379;22;20002;-58
2021/10/29 05:57:56;;;;;;;23.33;18.40;;;;;;;3.66;99.46;95613.25;6365609;22;20434;-58
2021/10/29 06:00:26;;;;;;;14.05;10.02;;;;;;;3.69;99.59;95624.31;6366198;22;20026;-58
2021/10/29 06:02:52;;;;;;;18.17;10.68;;;;;;;3.68;100.00;95620.03;6367856;22;20009;-58
2021/10/29 06:05:18;;;;;;;12.45;10.98;;;;;;;3.65;99.55;95616.78;6367235;22;20334;-58
2021/10/29 06:07:43;;;;;;;12.63;11.25;;;;;;;3.62;99.73;95630.84;6367859;22;20002;-58
2021/10/29 06:10:13;;;;;;;10.80;9.68;;;;;;;3.58;99.68;95631.97;6367301;22;20395;-58
2021/10/29 06:12:38;;;;;;;11.02;8.63;;;;;;;3.55;99.75;95632.19;6367702;22;20221;-58
2021/10/29 06:15:06;;;;;;;10.52;7.03;;;;;;;3.53;99.69;95626.25;6367460;22;20203;-58
2021/10/29 06:17:32;;;;;;;8.45;7.57;;;;;;;3.54;100.00;95627.91;6367556;22;20002;-58
2021/10/29 06:19:58;;;;;;;8.93;7.95;;;;;;;3.53;99.77;95629.66;6367166;22;20449;-58
2021/10/29 06:24:49;;;;;;;16.65;12.88;;;;;;;3.51;100.00;95628.94;6367513;22;20382;-58
2021/10/29 06:29:43;;;;;;;12.68;6.60;;;;;;;3.48;100.00;95634.34;6367175;22;20017;-58
2021/10/29 06:32:09;;;;;;;7.95;7.13;;;;;;;3.50;100.00;95636.84;6366944;22;20006;-58
2021/10/29 06:34:35;;;;;;;13.63;8.05;;;;;;;3.45;100.00;95639.75;6366877;22;20024;-58
2021/10/29 06:37:02;;;;;;;10.57;7.95;;;;;;;3.43;100.00;95637.25;6367185;22;19999;-58
2021/10/29 06:39:28;;;;;;;11.77;7.68;;;;;;;3.48;100.00;95636.13;6367589;22;20010;-58
2021/10/29 06:41:54;;;;;;;11.60;9.57;;;;;;;3.51;100.00;95639.34;6367245;22;20078;-58
2021/10/29 06:44:28;;;;;;;16.00;14.40;;;;;;;3.52;100.00;95640.19;6366899;22;20002;-58
2021/10/29 07:40:39;;;;;;;18.75;10.40;;;;;;;4.05;100.00;95662.78;6366557;22;20017;-58
2021/10/29 07:43:08;;;;;;;21.38;13.82;;;;;;;4.09;100.00;95661.66;6366808;22;20025;-58
2021/10/29 07:45:33;;;;;;;13.38;11.40;;;;;;;4.15;99.69;95663.84;6366676;22;20376;-58
2021/10/29 07:47:59;;;;;;;15.30;11.30;;;;;;;4.20;99.66;95674.81;6366913;22;20006;-58
2021/10/29 07:50:25;;;;;;;15.15;11.57;;;;;;;4.19;99.66;95670.53;6365861;22;20006;-58
2021/10/29 07:52:54;;;;;;;15.65;11.52;;;;;;;4.22;99.95;95675.53;6366658;22;20002;-58
2021/10/29 07:55:22;;;;;;;19.67;10.45;;;;;;;4.30;99.36;95675.84;6366259;22;20077;-58
2021/10/29 07:57:49;;;;;;;12.93;10.82;;;;;;;4.27;99.64;95670.84;6366462;22;20002;-58
2021/10/29 08:00:19;;;;;;;15.75;11.40;;;;;;;4.27;100.00;95663.00;6366180;22;20431;-58
2021/10/29 08:02:50;;;;;;;12.05;10.73;;;;;;;4.30;100.00;95656.78;6366680;22;20082;-58
2021/10/29 08:05:16;;;;;;;13.70;10.45;;;;;;;4.34;100.00;95665.22;6366247;22;20009;-59
2021/10/29 08:07:41;;;;;;;14.27;11.65;;;;;;;4.37;99.82;95658.00;6366243;22;20346;-58
2021/10/29 08:10:10;;;;;;;13.70;12.02;;;;;;;4.39;100.00;95657.91;6366381;22;20002;-58
2021/10/29 08:12:37;;;;;;;12.23;10.93;;;;;;;4.47;100.00;95662.63;6366231;22;20002;-58
2021/10/29 08:15:05;;;;;;;12.75;10.50;;;;;;;4.55;100.00;95653.34;6366430;22;20078;-59
2021/10/29 08:17:33;;;;;;;14.23;11.65;;;;;;;4.69;100.00;95654.13;6366412;22;20006;-58
2021/10/29 08:19:59;;;;;;;13.30;9.48;;;;;;;4.85;99.77;95657.34;6366157;22;19998;-58
2021/10/29 08:22:25;;;;;;;9.93;9.02;;;;;;;5.08;99.19;95654.03;6366472;22;20868;-58
2021/10/29 08:24:51;;;;;;;14.55;8.48;;;;;;;5.32;99.19;95656.69;6365758;22;20010;-58
2021/10/29 08:27:16;;;;;;;10.27;8.88;;;;;;;5.51;98.26;95647.53;6365993;22;20006;-58
2021/10/29 08:29:42;;;;;;;13.95;8.73;;;;;;;5.62;97.49;95650.16;6366107;22;20077;-58
2021/10/29 08:32:09;;;;;;;10.45;9.20;;;;;;;5.67;97.49;95645.47;6366178;22;20005;-59
2021/10/29 08:34:34;;;;;;;12.73;9.15;;;;;;;5.75;98.50;95644.91;6365468;22;19998;-58
2021/10/29 08:37:02;;;;;;;15.25;9.93;;;;;;;5.87;98.33;95638.75;6365796;22;20353;-59
2021/10/29 08:39:33;;;;;;;12.52;11.00;;;;;;;6.02;97.63;95642.03;6365942;22;20010;-58
2021/10/29 08:42:00;;;;;;;13.02;9.95;;;;;;;6.20;97.70;95648.63;6366230;22;19998;-58
2021/10/29 08:44:26;;;;;;;12.02;10.48;;;;;;;6.41;97.41;95644.38;6365803;22;20006;-58
2021/10/29 08:46:52;;;;;;;15.05;9.18;;;;;;;6.52;96.61;95642.72;6365794;22;20005;-58
2021/10/29 08:49:18;;;;;;;8.75;7.82;;;;;;;6.61;95.12;95647.22;6364066;22;20319;-58
2021/10/29 08:51:44;;;;;;;10.70;7.00;;;;;;;6.72;93.89;95649.00;6366121;22;20056;-58
2021/10/29 08:54:10;;;;;;;8.77;6.95;;;;;;;6.85;92.82;95643.66;6365885;22;20010;-58
2021/10/29 08:56:36;;;;;;;9.10;7.57;;;;;;;6.87;92.26;95637.34;6366911;22;20002;-58
2021/10/29 08:59:18;;;;;;;8.05;6.85;;;;;;;6.94;91.99;95629.84;6365999;22;20026;-59
2021/10/29 09:01:56;;;;;;;9.10;7.95;;;;;;;7.00;91.74;95633.78;6365802;22;20048;-59
2021/10/29 09:07:23;;;;;;;8.57;7.78;;;;;;;7.23;90.11;95644.22;6365701;22;20017;-58
2021/10/29 09:32:55;;;;;;;6.10;4.60;;;;;;;8.48;85.96;95627.88;6366133;22;20022;-58
2021/10/29 09:35:23;;;;;;;6.10;4.40;;;;;;;8.57;84.93;95628.94;6365713;22;20051;-58
2021/10/29 09:38:13;;;;;;;4.78;4.38;;;;;;;8.72;84.86;95624.16;6367817;22;19998;-59
2021/10/29 09:40:59;;;;;;;4.15;3.75;;;;;;;8.87;83.42;95616.78;6352673;22;20093;-58
2021/10/29 09:43:25;;;;;;;3.70;3.40;;;;;;;8.96;82.10;95621.22;6367344;22;20037;-59
2021/10/29 09:45:57;;;;;;;4.43;3.92;;;;;;;9.06;81.59;95616.00;6368073;22;20087;-58
2021/10/29 09:48:42;;;;;;;4.60;3.50;;;;;;;9.19;80.93;95610.47;6367358;22;20453;-58
2021/10/29 09:51:13;;;;;;;4.40;4.03;;;;;;;9.27;79.82;95608.00;6368140;22;20056;-59
2021/10/29 09:58:58;;;;;;;5.18;3.65;;;;;;;9.63;77.78;95604.88;6367297;22;20161;-58
2021/10/29 10:01:29;;;;;;;3.90;3.38;;;;;;;9.77;75.74;95600.16;6367546;22;20010;-58
2021/10/29 10:03:55;;;;;;;4.15;2.88;;;;;;;9.94;75.15;95604.72;6367653;22;20092;-58
2021/10/29 10:06:25;;;;;;;5.80;3.22;;;;;;;10.12;74.60;95591.66;6367718;22;20033;-58
2021/10/29 10:08:56;;;;;;;7.95;3.60;;;;;;;10.29;72.78;95587.50;6367157;22;19998;-58
2021/10/29 10:11:25;;;;;;;3.63;3.30;;;;;;;10.49;73.22;95582.16;6367846;22;20002;-58
2021/10/29 10:13:52;;;;;;;4.60;3.22;;;;;;;10.66;70.38;95577.97;6367052;22;20010;-58
2021/10/29 10:16:18;;;;;;;11.85;3.28;;;;;;;10.85;69.41;95582.31;6367707;22;20009;-58
2021/10/29 10:18:44;;;;;;;3.83;3.00;;;;;;;11.01;69.91;95575.59;6367818;22;20006;-58
2021/10/29 10:21:13;;;;;;;5.82;3.47;;;;;;;11.16;70.35;95579.38;6367803;22;20013;-58
2021/10/29 10:23:42;;;;;;;6.70;3.58;;;;;;;11.32;71.23;95575.22;6367797;22;20469;-58
2021/10/29 10:26:27;;;;;;;3.78;2.83;;;;;;;11.50;70.82;95574.41;6367395;22;20029;-58
2021/10/29 10:43:43;;;;;;;4.60;3.20;;;;;;;12.08;65.85;95548.56;6367330;22;20016;-59
2021/10/29 10:46:20;;;;;;;3.35;2.65;;;;;;;12.22;65.83;95541.88;6367259;22;20026;-58
2021/10/29 10:49:09;;;;;;;2.40;2.08;;;;;;;12.45;64.83;95536.88;6367411;22;20438;-58
2021/10/29 10:54:21;;;;;;;2.95;2.47;;;;;;;12.70;63.43;95521.97;6367298;22;20068;-58
2021/10/29 11:11:13;;;;;;;4.25;3.17;;;;;;;13.76;57.47;95492.44;6366881;22;19931;-58
2021/10/29 11:13:42;;;;;;;;;;;;;;;13.87;57.21;95480.66;6366714;22;20017;-59
2021/10/29 11:16:09;;;;;;;4.60;3.35;;;;;;;14.07;58.69;95472.38;6367368;22;19944;-58
2021/10/29 11:18:36;;;;;;;3.80;3.50;;;;;;;14.39;57.28;95466.16;6366977;22;20067;-59
2021/10/29 11:21:34;;;;;;;5.20;3.30;;;;;;;14.59;56.64;95453.31;6366556;22;20006;-58
2021/10/29 11:24:00;;;;;;;14.70;3.30;;;;;;;14.75;56.55;95441.00;6358095;22;20461;-58
2021/10/29 11:26:36;;;;;;;4.57;2.85;;;;;;;15.02;55.96;95433.56;6366379;22;20112;-58
2021/10/29 11:29:03;;;;;;;3.55;2.72;;;;;;;15.11;55.53;95426.38;6366347;22;20144;-58
2021/10/29 11:31:36;;;;;;;4.65;2.85;;;;;;;14.94;55.68;95423.03;6366677;22;20393;-58
2021/10/29 11:34:04;;;;;;;4.55;3.22;;;;;;;15.12;55.22;95428.81;6366271;22;20002;-58
2021/10/29 11:36:32;;;;;;;3.60;2.45;;;;;;;15.02;54.44;95422.94;6366391;22;20007;-58
2021/10/29 11:39:00;;;;;;;4.18;2.60;;;;;;;14.96;54.47;95428.97;6366716;22;20025;-58
2021/10/29 11:41:29;;;;;;;3.33;2.65;;;;;;;14.98;53.28;95430.41;6366527;22;20051;-58
2021/10/29 11:44:04;;;;;;;3.75;3.45;;;;;;;15.12;53.96;95423.53;6366358;22;20008;-58
2021/10/29 11:46:31;;;;;;;11.88;3.95;;;;;;;15.21;54.06;95421.66;6366421;22;20037;-58
2021/10/29 11:49:08;;;;;;;8.65;3.75;;;;;;;15.37;53.56;95417.22;6366369;22;19999;-58
2021/10/29 11:51:35;;;;;;;5.30;3.50;;;;;;;15.39;52.49;95417.88;6366485;22;19998;-58
2021/10/29 11:54:13;;;;;;;7.07;3.63;;;;;;;15.49;49.33;95422.91;6366299;22;20002;-58
2021/10/29 12:07:23;;;;;;;2.83;2.03;;;;;;;16.44;40.64;95410.00;6366189;22;20581;-58
2021/10/29 12:10:00;;;;;;;6.70;2.63;;;;;;;16.25;42.09;95417.53;6366804;22;20010;-58
2021/10/29 12:12:28;;;;;;;4.95;2.67;;;;;;;16.30;41.43;95414.31;6366112;22;20065;-57
2021/10/29 12:14:55;;;;;;;3.67;2.10;;;;;;;16.39;39.32;95426.50;6366395;22;20014;-58
2021/10/29 12:17:26;;;;;;;5.65;2.75;;;;;;;16.12;40.68;95417.34;6366146;22;20002;-58
2021/10/29 12:20:02;;;;;;;7.70;2.88;;;;;;;16.00;41.87;95415.16;6366286;22;20002;-58
2021/10/29 12:25:00;;;;;;;6.68;2.65;;;;;;;15.84;43.08;95415.31;6366148;22;20002;-58
2021/10/29 12:27:32;;;;;;;6.85;3.28;;;;;;;15.90;42.47;95414.59;6365856;22;20398;-58
2021/10/29 12:30:16;;;;;;;2.40;2.20;;;;;;;15.92;42.67;95409.94;6365932;22;20006;-58
2021/10/29 13:03:25;;;;;;;3.03;2.42;;;;;;;17.00;40.17;95388.16;6365770;22;20140;-58
2021/10/29 13:05:55;;;;;;;6.93;3.00;;;;;;;16.96;41.02;95386.84;6365908;22;20441;-57
2021/10/29 13:08:22;;;;;;;3.10;2.40;;;;;;;17.07;39.67;95385.56;6366100;22;20166;-58
2021/10/29 13:10:53;;;;;;;7.90;3.00;;;;;;;17.20;38.97;95387.50;6365184;22;20015;-58
2021/10/29 13:13:26;;;;;;;6.72;2.78;;;;;;;17.17;40.70;95379.91;6365993;22;20085;-57
2021/10/29 13:15:57;;;;;;;4.35;2.60;;;;;;;17.34;39.41;95385.78;6365620;22;20014;-58
2021/10/29 13:18:26;;;;;;;2.38;2.17;;;;;;;17.44;38.82;95378.31;6365998;22;20024;-57
2021/10/29 13:21:39;;;;;;;4.90;2.25;;;;;;;17.50;38.89;95383.88;6365560;22;20036;-58
2021/10/29 13:26:39;;;;;;;5.38;2.15;;;;;;;18.02;38.77;95365.81;6365837;22;20025;-58
2021/10/29 13:34:13;;;;;;;4.47;2.60;;;;;;;18.20;37.06;95365.28;6365740;22;20500;-58
2021/10/29 13:38:05;;;;;;;3.40;2.38;;;;;;;18.71;36.16;95364.03;6365335;22;20461;-57
2021/10/29 13:56:54;;;;;;;4.57;2.28;;;;;;;18.92;35.54;95340.09;6365741;22;20465;-58
2021/10/29 14:02:17;;;;;;;3.85;2.42;;;;;;;18.96;35.30;95331.47;6366285;22;20067;-57
2021/10/29 14:29:22;;;;;;;7.32;2.80;;;;;;;18.67;39.80;95321.97;6367196;22;20403;-57
2021/10/29 14:34:24;;;;;;;3.22;2.85;;;;;;;18.61;40.04;95315.63;6366976;22;20074;-57
2021/10/29 14:37:08;;;;;;;4.03;2.55;;;;;;;18.74;39.69;95302.31;6367572;22;20013;-57
2021/10/29 14:39:46;;;;;;;6.65;5.82;;;;;;;18.66;40.95;95299.00;6367652;22;20034;-58
2021/10/29 14:53:25;;;;;;;3.88;2.17;;;;;;;18.27;42.62;95296.03;6270943;22;20012;-58
2021/10/29 15:02:06;;;;;;;3.67;2.47;;;;;;;18.52;40.77;95298.16;6367071;22;20394;-57
2021/10/29 15:46:07;;;;;;;4.95;2.72;;;;;;;15.50;46.09;95298.06;6367094;22;20010;-57
2021/10/29 15:51:10;;;;;;;6.72;3.85;;;;;;;15.30;47.02;95311.03;6366614;22;20074;-56
2021/10/29 15:53:36;;;;;;;7.65;3.15;;;;;;;15.25;46.65;95305.44;6367100;22;19999;-56
2021/10/29 15:56:11;;;;;;;3.45;3.15;;;;;;;14.95;48.04;95305.41;6367074;22;20010;-57
2021/10/29 15:58:58;;;;;;;5.13;3.70;;;;;;;14.76;49.02;95310.19;6366618;22;20073;-56
2021/10/29 16:17:59;;;;;;;8.32;4.78;;;;;;;13.42;53.71;95327.63;6365989;22;20018;-57
2021/10/29 16:20:24;;;;;;;4.78;4.38;;;;;;;13.20;55.92;95333.63;6365729;22;19994;-57
2021/10/29 16:22:51;;;;;;;7.80;4.30;;;;;;;12.94;56.47;95332.00;6366553;22;20003;-56
2021/10/29 16:25:37;;;;;;;7.88;3.78;;;;;;;12.84;57.33;95342.72;6366019;22;19999;-58
2021/10/29 16:28:09;;;;;;;8.18;3.80;;;;;;;12.60;58.43;95350.44;6365994;22;20002;-55
2021/10/29 16:30:35;;;;;;;6.93;3.92;;;;;;;12.49;58.59;95353.41;6366330;22;20470;-57
2021/10/29 16:35:32;;;;;;;5.38;4.53;;;;;;;12.24;59.68;95352.50;6366123;22;20055;-57
2021/10/29 16:37:58;;;;;;;9.32;4.38;;;;;;;12.12;60.23;95363.34;6366332;22;20454;-58
2021/10/29 16:40:24;;;;;;;6.35;4.45;;;;;;;12.08;60.18;95367.28;6365785;22;19995;-55
2021/10/29 16:42:50;;;;;;;7.03;5.53;;;;;;;11.95;60.63;95369.53;6366165;22;20400;-56
2021/10/29 16:45:18;;;;;;;10.38;6.63;;;;;;;11.92;60.50;95378.59;6365960;22;20073;-57